Time;durP1;ratioP1;P1;durP2;ratioP2;P2;SDS_P1;SDS_P2;PMS_P1;PMS_P2;Temp;Humidity;BMP_temperature;BMP_pressure;BME280_temperature;BME280_humidity;BME280_pressure;Samples;Min_cycle;Max_cycle;Signal;HPM_P1;HPM_P2
2021/05/15 00:01:46;;;;;;;0.20;0.20;;;21.60;51.20;;;;;;6244387;28;20061;-75
2021/05/15 00:04:46;;;;;;;0.38;0.20;;;21.60;51.20;;;;;;6242709;28;20116;-76
2021/05/15 00:07:47;;;;;;;0.30;0.30;;;21.60;51.20;;;;;;6238394;28;20461;-76
2021/05/15 00:10:48;;;;;;;0.40;0.30;;;21.60;51.20;;;;;;6242497;28;20585;-76
2021/05/15 00:13:49;;;;;;;0.20;0.20;;;21.60;51.20;;;;;;6220926;28;20038;-75
2021/05/15 00:16:50;;;;;;;0.30;0.20;;;21.60;51.20;;;;;;6232602;28;20037;-76
2021/05/15 00:19:50;;;;;;;0.50;0.30;;;21.60;51.20;;;;;;6243100;28;20030;-76
2021/05/15 00:22:51;;;;;;;0.85;0.30;;;21.60;51.20;;;;;;6243794;28;20503;-76
2021/05/15 00:25:51;;;;;;;0.22;0.22;;;21.60;51.20;;;;;;6244095;28;20449;-76
2021/05/15 00:28:52;;;;;;;0.30;0.30;;;21.60;51.20;;;;;;6243900;28;20041;-75
2021/05/15 00:31:53;;;;;;;0.20;0.20;;;21.60;51.20;;;;;;6238552;28;20104;-75
2021/05/15 00:34:53;;;;;;;0.85;0.30;;;21.60;51.20;;;;;;6243287;28;20049;-76
2021/05/15 00:37:54;;;;;;;0.20;0.20;;;21.60;51.20;;;;;;6243738;28;20087;-75
2021/05/15 00:40:54;;;;;;;0.40;0.40;;;21.60;51.20;;;;;;6242375;28;20114;-75
2021/05/15 00:44:17;;;;;;;0.50;0.38;;;21.60;51.20;;;;;;6243064;28;20030;-76
2021/05/15 00:47:20;;;;;;;0.30;0.30;;;21.60;51.20;;;;;;6243343;28;20034;-76
2021/05/15 00:50:21;;;;;;;0.40;0.40;;;21.60;51.20;;;;;;6243478;28;20048;-76
2021/05/15 00:53:21;;;;;;;0.55;0.30;;;21.60;51.20;;;;;;6243103;28;20026;-75
2021/05/15 00:56:22;;;;;;;0.20;0.20;;;21.60;51.20;;;;;;6242187;28;20029;-76
2021/05/15 00:59:23;;;;;;;0.30;0.30;;;21.60;51.20;;;;;;6243373;28;20117;-75
2021/05/15 01:02:23;;;;;;;0.30;0.30;;;21.60;51.20;;;;;;6242898;28;20022;-75
2021/05/15 01:05:24;;;;;;;0.30;0.30;;;21.60;51.20;;;;;;6243110;28;20032;-76
2021/05/15 01:08:25;;;;;;;0.60;0.30;;;21.60;51.20;;;;;;6243073;28;20025;-76
2021/05/15 01:11:26;;;;;;;0.60;0.30;;;21.60;51.20;;;;;;6242579;28;20033;-76
2021/05/15 01:14:26;;;;;;;0.30;0.30;;;21.60;51.20;;;;;;6242896;28;20079;-76
2021/05/15 01:17:27;;;;;;;0.30;0.30;;;21.60;51.20;;;;;;6242965;28;20511;-75
2021/05/15 01:20:30;;;;;;;0.30;0.30;;;21.60;51.40;;;;;;6242989;28;20550;-76
2021/05/15 01:23:31;;;;;;;0.20;0.20;;;21.60;51.20;;;;;;6242413;28;20029;-76
2021/05/15 01:26:32;;;;;;;0.32;0.32;;;21.60;51.20;;;;;;6242859;28;20072;-77
2021/05/15 01:29:34;;;;;;;0.68;0.40;;;21.60;51.20;;;;;;6242572;28;20530;-76
2021/05/15 01:32:36;;;;;;;0.32;0.30;;;21.60;51.20;;;;;;6242946;28;20033;-75
2021/05/15 01:35:37;;;;;;;0.30;0.30;;;21.60;51.20;;;;;;6242216;28;20042;-75
2021/05/15 01:38:38;;;;;;;0.20;0.20;;;21.60;51.20;;;;;;6242787;28;20326;-76
2021/05/15 01:41:38;;;;;;;0.40;0.30;;;21.60;51.20;;;;;;6242893;28;20018;-75
2021/05/15 01:44:39;;;;;;;0.28;0.28;;;21.60;51.20;;;;;;6242169;28;20061;-76
2021/05/15 01:47:39;;;;;;;0.32;0.30;;;21.60;51.20;;;;;;6242670;28;20021;-76
2021/05/15 01:50:40;;;;;;;0.40;0.40;;;21.60;51.20;;;;;;6242394;28;20055;-76
2021/05/15 01:53:49;;;;;;;0.30;0.30;;;21.60;51.20;;;;;;6243576;28;20370;-76
2021/05/15 01:56:49;;;;;;;0.40;0.40;;;21.60;51.20;;;;;;6247629;28;20105;-76
2021/05/15 01:59:50;;;;;;;0.32;0.30;;;21.60;51.20;;;;;;6247361;28;20400;-76
2021/05/15 02:02:50;;;;;;;0.55;0.40;;;21.60;51.20;;;;;;6247506;28;20509;-76
2021/05/15 02:05:53;;;;;;;0.30;0.28;;;21.60;51.20;;;;;;6242034;28;20033;-76
2021/05/15 02:08:53;;;;;;;0.30;0.30;;;21.60;51.20;;;;;;6247443;28;20509;-76
2021/05/15 02:11:54;;;;;;;0.30;0.30;;;21.60;51.20;;;;;;6247256;28;20059;-76
2021/05/15 02:14:54;;;;;;;0.30;0.30;;;21.60;51.20;;;;;;6246940;28;20519;-76
2021/05/15 02:17:57;;;;;;;0.30;0.30;;;21.60;51.20;;;;;;6246891;28;20144;-75
2021/05/15 02:20:58;;;;;;;0.63;0.40;;;21.60;51.20;;;;;;6246633;28;20021;-76
2021/05/15 02:23:59;;;;;;;0.40;0.22;;;21.60;51.20;;;;;;6247167;28;20080;-76
2021/05/15 02:26:59;;;;;;;0.50;0.30;;;21.60;51.20;;;;;;6247098;28;20025;-75
2021/05/15 02:30:00;;;;;;;0.28;0.20;;;21.60;51.20;;;;;;6244617;28;20048;-76
2021/05/15 02:33:00;;;;;;;0.30;0.30;;;21.60;51.20;;;;;;6246865;28;20105;-76
2021/05/15 02:36:01;;;;;;;0.30;0.30;;;21.60;51.20;;;;;;6246228;28;20071;-75
2021/05/15 02:39:03;;;;;;;0.52;0.30;;;21.60;51.30;;;;;;6246424;28;20476;-75
2021/05/15 02:42:04;;;;;;;0.30;0.30;;;21.60;51.20;;;;;;6246003;28;20600;-76
2021/05/15 02:45:07;;;;;;;0.47;0.22;;;21.60;51.20;;;;;;6246136;28;20021;-76
2021/05/15 02:48:08;;;;;;;0.20;0.20;;;21.60;51.20;;;;;;6245459;28;20026;-75
2021/05/15 02:51:08;;;;;;;0.20;0.20;;;21.60;51.20;;;;;;6246049;28;20040;-77
2021/05/15 02:54:09;;;;;;;0.22;0.20;;;21.60;51.20;;;;;;6245983;28;20148;-76
2021/05/15 02:57:10;;;;;;;0.60;0.40;;;21.60;51.20;;;;;;6246203;28;20053;-75
2021/05/15 03:00:14;;;;;;;0.47;0.40;;;21.60;51.20;;;;;;6245943;28;20033;-76
2021/05/15 03:03:15;;;;;;;0.30;0.30;;;21.60;51.20;;;;;;6246196;28;20029;-76
2021/05/15 03:06:16;;;;;;;0.75;0.20;;;21.60;51.20;;;;;;6245523;28;20036;-75
2021/05/15 03:09:16;;;;;;;0.40;0.20;;;21.60;51.20;;;;;;6244824;28;20025;-74
2021/05/15 03:12:17;;;;;;;0.73;0.43;;;21.60;51.20;;;;;;6245631;28;20053;-75
2021/05/15 03:15:17;;;;;;;0.65;0.40;;;21.60;51.20;;;;;;6245704;28;20183;-75
2021/05/15 03:18:18;;;;;;;0.50;0.32;;;21.60;51.20;;;;;;6245552;28;20105;-76
2021/05/15 03:21:18;;;;;;;0.30;0.30;;;21.60;51.20;;;;;;6245074;28;20030;-75
2021/05/15 03:24:19;;;;;;;0.52;0.40;;;21.60;51.20;;;;;;6245755;28;20423;-76
2021/05/15 03:27:19;;;;;;;0.30;0.30;;;21.60;51.20;;;;;;6243407;28;20029;-75
2021/05/15 03:30:20;;;;;;;0.40;0.40;;;21.60;51.20;;;;;;6245512;28;20060;-75
2021/05/15 03:33:21;;;;;;;0.43;0.35;;;21.50;51.10;;;;;;6245572;28;20044;-75
2021/05/15 03:36:22;;;;;;;0.47;0.35;;;21.50;51.10;;;;;;6244963;28;20366;-76
2021/05/15 03:39:22;;;;;;;0.43;0.43;;;21.60;51.20;;;;;;6245088;28;20022;-76
2021/05/15 03:42:23;;;;;;;0.50;0.30;;;21.50;51.10;;;;;;6245071;28;20068;-75
2021/05/15 03:45:23;;;;;;;0.30;0.30;;;21.50;51.10;;;;;;6244799;28;20088;-76
2021/05/15 03:48:24;;;;;;;0.30;0.30;;;21.50;51.10;;;;;;6245718;28;20112;-76
2021/05/15 03:51:24;;;;;;;0.40;0.32;;;21.50;51.10;;;;;;6244513;28;20430;-76
2021/05/15 03:54:26;;;;;;;0.60;0.40;;;21.60;51.20;;;;;;6245317;28;20399;-76
2021/05/15 03:57:26;;;;;;;0.30;0.30;;;21.50;51.10;;;;;;6244346;28;20325;-75
2021/05/15 04:00:43;;;;;;;0.50;0.40;;;21.50;51.10;;;;;;6244647;28;20369;-76
2021/05/15 04:03:43;;;;;;;0.35;0.30;;;21.50;51.10;;;;;;6239914;28;20061;-76
2021/05/15 04:06:44;;;;;;;0.43;0.30;;;21.50;51.10;;;;;;6243863;28;20091;-75
2021/05/15 04:09:45;;;;;;;0.45;0.30;;;21.50;51.10;;;;;;6244164;28;20060;-76
2021/05/15 04:16:14;;;;;;;0.43;0.40;;;21.60;51.20;;;;;;6233142;28;20049;-75
2021/05/15 04:19:15;;;;;;;0.40;0.30;;;21.50;51.00;;;;;;6243915;28;20399;-76
2021/05/15 04:22:16;;;;;;;0.50;0.47;;;21.50;51.10;;;;;;6242170;28;20540;-75
2021/05/15 04:25:16;;;;;;;0.90;0.60;;;21.50;51.00;;;;;;6242602;28;20029;-75
2021/05/15 04:28:17;;;;;;;0.47;0.40;;;21.50;51.10;;;;;;6244006;28;20230;-75
2021/05/15 04:31:18;;;;;;;0.45;0.40;;;21.50;51.10;;;;;;6244129;28;20056;-76
2021/05/15 04:34:18;;;;;;;0.38;0.30;;;21.50;51.10;;;;;;6188719;28;20053;-76
2021/05/15 04:37:19;;;;;;;0.40;0.40;;;21.50;51.10;;;;;;6191570;28;20046;-76
2021/05/15 04:40:19;;;;;;;0.52;0.40;;;21.60;51.20;;;;;;6192095;28;20476;-75
2021/05/15 04:43:20;;;;;;;0.50;0.50;;;21.50;51.10;;;;;;6190979;28;20041;-76
2021/05/15 04:46:21;;;;;;;0.50;0.40;;;21.50;51.10;;;;;;6191391;28;20371;-76
2021/05/15 04:49:21;;;;;;;0.65;0.47;;;21.50;51.00;;;;;;6191441;28;20038;-75
2021/05/15 04:52:22;;;;;;;0.28;0.28;;;21.50;51.10;;;;;;6174829;28;20061;-76
2021/05/15 04:55:23;;;;;;;0.40;0.30;;;21.50;51.10;;;;;;6191420;28;20113;-76
2021/05/15 04:58:23;;;;;;;0.75;0.40;;;21.50;51.10;;;;;;6190909;28;20030;-76
2021/05/15 05:01:24;;;;;;;0.73;0.43;;;21.50;51.10;;;;;;6187820;28;20046;-76
2021/05/15 05:04:25;;;;;;;1.25;0.57;;;21.50;51.10;;;;;;6206193;28;20092;-76
2021/05/15 05:07:25;;;;;;;0.63;0.40;;;21.60;51.20;;;;;;6243676;28;20037;-76
2021/05/15 05:10:27;;;;;;;1.05;0.45;;;21.50;51.10;;;;;;6243685;28;20128;-76
2021/05/15 05:13:28;;;;;;;0.60;0.40;;;21.50;51.00;;;;;;6242893;28;20095;-76
2021/05/15 05:16:29;;;;;;;0.40;0.32;;;21.50;51.10;;;;;;6242925;28;20017;-76
2021/05/15 05:19:29;;;;;;;0.30;0.30;;;21.50;51.10;;;;;;6242630;28;20591;-76
2021/05/15 05:22:30;;;;;;;0.50;0.45;;;21.50;51.10;;;;;;6242787;28;20100;-75
2021/05/15 05:25:30;;;;;;;0.40;0.35;;;21.50;51.10;;;;;;6243054;28;20057;-76
2021/05/15 05:28:34;;;;;;;0.30;0.30;;;21.50;51.10;;;;;;6235145;28;20055;-76
2021/05/15 05:31:36;;;;;;;0.43;0.35;;;21.60;51.20;;;;;;6230496;28;20029;-76
2021/05/15 05:34:37;;;;;;;0.85;0.30;;;21.50;51.10;;;;;;6238918;28;20396;-76
2021/05/15 05:37:38;;;;;;;0.30;0.30;;;21.60;51.20;;;;;;6238781;28;20032;-76
2021/05/15 05:40:38;;;;;;;0.40;0.35;;;21.50;51.00;;;;;;6241105;28;20034;-76
2021/05/15 05:43:39;;;;;;;0.30;0.30;;;21.50;51.10;;;;;;6240242;28;20026;-76
2021/05/15 05:46:39;;;;;;;1.70;0.40;;;21.50;51.20;;;;;;6240904;28;20119;-75
2021/05/15 05:49:40;;;;;;;0.60;0.50;;;21.60;51.20;;;;;;6256412;28;20476;-75
2021/05/15 05:52:40;;;;;;;2.45;0.40;;;21.60;51.20;;;;;;6235132;28;20496;-76
2021/05/15 05:55:41;;;;;;;0.57;0.50;;;21.60;51.20;;;;;;6240103;28;20064;-76
2021/05/15 05:58:44;;;;;;;0.30;0.30;;;21.60;51.20;;;;;;6240709;28;20395;-75
2021/05/15 06:01:45;;;;;;;3.33;0.38;;;21.50;51.10;;;;;;6231614;28;20037;-77
2021/05/15 06:04:45;;;;;;;0.40;0.40;;;21.60;51.20;;;;;;6241378;28;20041;-75
2021/05/15 06:07:46;;;;;;;0.52;0.43;;;21.60;51.20;;;;;;6241344;28;20488;-75
2021/05/15 06:10:47;;;;;;;1.88;0.40;;;21.60;51.20;;;;;;6241549;28;20076;-75
2021/05/15 06:13:47;;;;;;;1.08;0.50;;;21.50;51.10;;;;;;6241564;28;20042;-75
2021/05/15 06:16:48;;;;;;;1.02;0.50;;;21.60;51.20;;;;;;6240483;28;20025;-75
2021/05/15 06:19:50;;;;;;;0.50;0.40;;;21.60;51.20;;;;;;6242160;28;20296;-76
2021/05/15 06:22:51;;;;;;;0.40;0.40;;;21.60;51.20;;;;;;6241602;28;20172;-75
2021/05/15 06:25:52;;;;;;;2.03;0.40;;;21.60;51.20;;;;;;6219881;28;20033;-75
2021/05/15 06:28:53;;;;;;;0.50;0.20;;;21.60;51.20;;;;;;6219611;28;20025;-77
2021/05/15 06:31:53;;;;;;;0.30;0.30;;;21.60;51.20;;;;;;6242295;28;20025;-75
2021/05/15 06:34:54;;;;;;;2.40;0.40;;;21.60;51.20;;;;;;6239379;28;20049;-75
2021/05/15 06:37:54;;;;;;;0.35;0.32;;;21.60;51.20;;;;;;6242247;28;20133;-75
2021/05/15 06:40:55;;;;;;;0.60;0.40;;;21.50;51.20;;;;;;6245336;28;20034;-75
2021/05/15 06:43:55;;;;;;;0.65;0.40;;;21.50;51.10;;;;;;6246788;28;20534;-76
2021/05/15 06:46:56;;;;;;;0.50;0.50;;;21.60;51.20;;;;;;6243233;28;20026;-75
2021/05/15 06:49:57;;;;;;;0.35;0.30;;;21.60;51.20;;;;;;6246298;28;20022;-75
2021/05/15 06:52:57;;;;;;;0.60;0.40;;;21.50;51.10;;;;;;6244188;28;20075;-75
2021/05/15 06:55:58;;;;;;;1.08;0.30;;;21.60;51.20;;;;;;6246136;28;20033;-75
2021/05/15 06:58:58;;;;;;;0.77;0.45;;;21.60;51.20;;;;;;6243011;28;20022;-75
2021/05/15 07:01:59;;;;;;;1.77;0.30;;;21.60;51.20;;;;;;6245898;28;20026;-75
2021/05/15 07:05:00;;;;;;;0.85;0.40;;;21.60;51.20;;;;;;6250351;28;20416;-75
2021/05/15 07:08:02;;;;;;;0.90;0.43;;;21.50;51.10;;;;;;6247691;28;20025;-75
2021/05/15 07:11:03;;;;;;;1.50;0.40;;;21.50;51.10;;;;;;6244081;28;20025;-76
2021/05/15 07:14:03;;;;;;;0.47;0.40;;;21.60;51.20;;;;;;6245746;28;20076;-75
2021/05/15 07:17:04;;;;;;;0.50;0.50;;;21.60;51.20;;;;;;6245490;28;20488;-75
2021/05/15 07:20:05;;;;;;;0.35;0.30;;;21.50;51.10;;;;;;6245322;28;20067;-75
2021/05/15 07:23:07;;;;;;;0.73;0.40;;;21.60;51.20;;;;;;6245946;28;20447;-75
2021/05/15 07:26:10;;;;;;;0.30;0.30;;;21.60;51.20;;;;;;6245185;28;20039;-75
2021/05/15 07:29:11;;;;;;;0.45;0.40;;;21.50;51.10;;;;;;6245533;28;20030;-75
2021/05/15 07:32:11;;;;;;;0.88;0.47;;;21.50;51.10;;;;;;6245400;28;20030;-75
2021/05/15 07:35:12;;;;;;;0.77;0.22;;;21.50;51.10;;;;;;6245103;28;20456;-77
2021/05/15 07:38:12;;;;;;;1.05;0.50;;;21.50;51.20;;;;;;6244167;28;20030;-75
2021/05/15 07:41:14;;;;;;;0.32;0.32;;;21.50;51.10;;;;;;6245127;28;20025;-76
2021/05/15 07:44:15;;;;;;;0.40;0.40;;;21.50;51.10;;;;;;6243137;28;20032;-75
2021/05/15 07:47:15;;;;;;;1.60;0.30;;;21.50;51.10;;;;;;6245323;28;20242;-75
2021/05/15 07:50:16;;;;;;;0.45;0.25;;;21.50;51.10;;;;;;6245507;28;20033;-76
2021/05/15 07:53:17;;;;;;;0.40;0.40;;;21.50;51.10;;;;;;6241985;28;20073;-76
2021/05/15 07:56:17;;;;;;;3.17;0.50;;;21.50;51.10;;;;;;6244645;28;20527;-75
2021/05/15 07:59:18;;;;;;;1.20;0.40;;;21.50;51.20;;;;;;6244875;28;20039;-75
2021/05/15 08:02:21;;;;;;;0.30;0.30;;;21.50;51.10;;;;;;6244772;28;20033;-75
2021/05/15 08:05:21;;;;;;;0.40;0.40;;;21.50;51.10;;;;;;6244670;28;20028;-75
2021/05/15 08:08:22;;;;;;;0.47;0.40;;;21.50;51.10;;;;;;6245181;28;20022;-76
2021/05/15 08:11:22;;;;;;;0.25;0.25;;;21.50;51.10;;;;;;6244031;28;20029;-76
2021/05/15 08:14:23;;;;;;;0.52;0.35;;;21.60;51.20;;;;;;6244079;28;20083;-75
2021/05/15 08:17:23;;;;;;;0.45;0.38;;;21.50;51.10;;;;;;6244803;28;20029;-75
2021/05/15 08:20:24;;;;;;;0.32;0.30;;;21.50;51.10;;;;;;6242463;28;20542;-76
2021/05/15 08:23:26;;;;;;;0.20;0.20;;;21.50;51.10;;;;;;6243959;28;20055;-75
2021/05/15 08:26:27;;;;;;;0.40;0.35;;;21.50;51.10;;;;;;6244250;28;20484;-75
2021/05/15 08:29:29;;;;;;;0.30;0.30;;;21.50;51.10;;;;;;6243700;28;20139;-75
2021/05/15 08:32:30;;;;;;;0.38;0.30;;;21.50;51.00;;;;;;6242717;28;20495;-76
2021/05/15 08:35:31;;;;;;;2.38;0.45;;;21.50;51.10;;;;;;6243527;28;20045;-76
2021/05/15 08:38:32;;;;;;;0.50;0.50;;;21.60;51.10;;;;;;6243712;28;20132;-76
2021/05/15 08:41:34;;;;;;;2.47;0.50;;;21.60;51.10;;;;;;6241537;28;20148;-76
2021/05/15 08:44:38;;;;;;;0.30;0.30;;;21.60;51.10;;;;;;6244027;28;20033;-76
2021/05/15 08:47:41;;;;;;;0.50;0.50;;;21.60;51.10;;;;;;6243808;28;20071;-75
2021/05/15 08:50:42;;;;;;;0.82;0.43;;;21.60;51.10;;;;;;6231670;28;20029;-76
2021/05/15 08:53:42;;;;;;;0.47;0.30;;;21.60;51.10;;;;;;6238941;28;20065;-76
2021/05/15 08:56:43;;;;;;;0.43;0.30;;;21.60;51.10;;;;;;6241194;28;20503;-76
2021/05/15 08:59:48;;;;;;;0.60;0.30;;;21.60;51.10;;;;;;6242306;28;20029;-76
2021/05/15 09:02:52;;;;;;;0.30;0.30;;;21.60;51.10;;;;;;6239845;28;20381;-76
2021/05/15 09:05:53;;;;;;;0.43;0.43;;;21.60;51.10;;;;;;6239390;28;20083;-76
2021/05/15 09:08:53;;;;;;;1.17;0.30;;;21.60;51.10;;;;;;6241373;28;20307;-75
2021/05/15 09:11:54;;;;;;;1.02;0.30;;;21.60;51.10;;;;;;6241119;28;20091;-75
2021/05/15 09:15:00;;;;;;;0.30;0.30;;;21.60;51.20;;;;;;6240818;28;20049;-76
2021/05/15 09:18:01;;;;;;;0.32;0.20;;;21.60;51.60;;;;;;6241863;28;20084;-76
2021/05/15 09:21:04;;;;;;;1.90;0.35;;;21.60;51.10;;;;;;6240759;28;20035;-76
2021/05/15 09:24:10;;;;;;;0.57;0.40;;;21.60;51.20;;;;;;6241291;28;20429;-76
2021/05/15 09:27:12;;;;;;;0.50;0.40;;;21.60;51.20;;;;;;6240092;28;20030;-75
2021/05/15 09:30:14;;;;;;;0.22;0.20;;;21.60;51.20;;;;;;6241746;28;20057;-76
2021/05/15 09:33:15;;;;;;;0.80;0.40;;;21.60;51.20;;;;;;6240260;28;20041;-75
2021/05/15 09:36:17;;;;;;;0.43;0.20;;;21.60;51.20;;;;;;6241375;28;20061;-75
2021/05/15 09:39:22;;;;;;;0.68;0.45;;;21.60;51.20;;;;;;6238799;28;20222;-75
2021/05/15 09:42:22;;;;;;;;;;;21.60;51.20;;;;;;6236751;28;20034;-75
2021/05/15 09:45:26;;;;;;;0.40;0.32;;;21.60;51.20;;;;;;6236137;28;20019;-76
2021/05/15 09:48:36;;;;;;;0.63;0.40;;;21.60;51.20;;;;;;6239713;28;20452;-75
2021/05/15 09:51:39;;;;;;;0.35;0.20;;;21.60;51.20;;;;;;6240723;28;20029;-74
2021/05/15 09:54:45;;;;;;;2.53;0.40;;;21.60;51.20;;;;;;6241451;28;20038;-77
2021/05/15 09:57:54;;;;;;;0.50;0.40;;;21.60;51.20;;;;;;6241043;28;20017;-76
2021/05/15 10:00:55;;;;;;;1.25;0.40;;;21.60;51.20;;;;;;6240865;28;20057;-76
2021/05/15 10:04:02;;;;;;;0.50;0.40;;;21.60;51.30;;;;;;6239552;28;20112;-75
2021/05/15 10:07:13;;;;;;;2.17;0.43;;;21.60;51.40;;;;;;6220791;28;20595;-77
2021/05/15 10:10:13;;;;;;;1.30;0.45;;;21.60;51.60;;;;;;6239592;28;20029;-76
2021/05/15 10:13:14;;;;;;;0.93;0.30;;;21.60;51.30;;;;;;6240909;28;20045;-76
2021/05/15 10:16:14;;;;;;;0.52;0.40;;;21.70;51.40;;;;;;6244873;28;20475;-76
2021/05/15 10:19:15;;;;;;;0.60;0.28;;;21.60;51.30;;;;;;6242332;28;20032;-77
2021/05/15 10:22:16;;;;;;;3.03;0.50;;;21.60;51.30;;;;;;6245348;28;20041;-77
2021/05/15 10:25:17;;;;;;;0.52;0.40;;;21.60;51.50;;;;;;6245320;28;20021;-76
2021/05/15 10:28:29;;;;;;;0.82;0.32;;;21.60;51.40;;;;;;6245577;28;20028;-77
2021/05/15 10:31:37;;;;;;;5.05;0.40;;;21.60;51.40;;;;;;6244574;28;20022;-76
2021/05/15 10:34:38;;;;;;;0.30;0.30;;;21.60;51.40;;;;;;6244980;28;20036;-75
2021/05/15 10:37:43;;;;;;;2.88;0.40;;;21.60;51.40;;;;;;6245299;28;20025;-76
2021/05/15 10:40:47;;;;;;;1.17;0.40;;;21.60;51.40;;;;;;6245034;28;20262;-75
2021/05/15 10:43:49;;;;;;;3.10;0.50;;;21.60;51.40;;;;;;6243306;28;20116;-75
2021/05/15 10:46:52;;;;;;;0.35;0.35;;;21.60;51.40;;;;;;6245261;28;20083;-76
2021/05/15 10:50:17;;;;;;;0.50;0.30;;;21.60;51.40;;;;;;6244465;28;20192;-76
2021/05/15 10:53:23;;;;;;;0.70;0.57;;;21.60;51.30;;;;;;6244695;28;20026;-77
2021/05/15 10:56:31;;;;;;;2.42;0.32;;;21.60;51.30;;;;;;6245449;28;20032;-76
2021/05/15 10:59:33;;;;;;;0.40;0.40;;;21.60;51.30;;;;;;6245050;28;20025;-76
2021/05/15 11:02:38;;;;;;;1.38;0.40;;;21.60;51.30;;;;;;6244148;28;20026;-76
2021/05/15 11:05:43;;;;;;;0.60;0.40;;;21.60;51.30;;;;;;6240730;28;20026;-75
2021/05/15 11:08:56;;;;;;;0.70;0.40;;;21.60;51.40;;;;;;6243165;28;20027;-75
2021/05/15 11:12:06;;;;;;;0.65;0.40;;;21.60;51.40;;;;;;6243395;28;20100;-76
2021/05/15 11:15:10;;;;;;;0.45;0.30;;;21.60;51.40;;;;;;6244115;28;20065;-75
2021/05/15 11:18:10;;;;;;;0.90;0.38;;;21.60;51.40;;;;;;6243927;28;20104;-76
2021/05/15 11:21:11;;;;;;;0.30;0.30;;;21.60;51.40;;;;;;6241334;28;20403;-76
2021/05/15 11:24:11;;;;;;;0.63;0.30;;;21.60;51.40;;;;;;6243682;28;20550;-76
2021/05/15 11:27:16;;;;;;;0.50;0.40;;;21.60;51.40;;;;;;6243125;28;20068;-75
2021/05/15 11:30:29;;;;;;;0.32;0.30;;;21.60;51.40;;;;;;6242539;28;20419;-76
2021/05/15 11:33:29;;;;;;;0.30;0.30;;;21.60;51.40;;;;;;6243229;28;20044;-75
2021/05/15 11:36:30;;;;;;;0.35;0.20;;;21.60;51.40;;;;;;6243457;28;20093;-75
2021/05/15 11:39:31;;;;;;;0.98;0.40;;;21.60;51.40;;;;;;6240301;28;20067;-76
2021/05/15 11:42:31;;;;;;;1.10;0.73;;;21.60;51.50;;;;;;6243623;28;20468;-76
2021/05/15 11:45:33;;;;;;;0.82;0.40;;;21.60;51.40;;;;;;6241047;28;20469;-76
2021/05/15 11:48:37;;;;;;;0.40;0.30;;;21.70;51.70;;;;;;6243322;28;20034;-76
2021/05/15 11:51:38;;;;;;;3.75;0.57;;;21.70;51.50;;;;;;6242604;28;20025;-77
2021/05/15 11:54:39;;;;;;;1.73;0.40;;;21.80;51.70;;;;;;6242450;28;20514;-76
2021/05/15 11:57:41;;;;;;;0.35;0.32;;;21.80;51.50;;;;;;6243082;28;20035;-75
2021/05/15 12:00:43;;;;;;;4.47;0.57;;;21.80;51.60;;;;;;6243080;28;20021;-76
2021/05/15 12:03:43;;;;;;;0.95;0.40;;;21.80;51.60;;;;;;6244324;28;20033;-76
2021/05/15 12:06:45;;;;;;;0.43;0.40;;;21.80;51.60;;;;;;6242924;28;20025;-76
2021/05/15 12:09:46;;;;;;;1.08;0.40;;;21.80;51.60;;;;;;6242068;28;20057;-77
2021/05/15 12:12:57;;;;;;;1.40;0.47;;;21.80;51.60;;;;;;6242484;28;20024;-77
2021/05/15 12:16:01;;;;;;;1.33;0.40;;;21.80;51.60;;;;;;6243361;28;20581;-77
2021/05/15 12:19:03;;;;;;;0.85;0.35;;;21.80;51.60;;;;;;6243675;28;20025;-76
2021/05/15 12:22:06;;;;;;;2.05;0.60;;;21.80;52.30;;;;;;6241439;28;20021;-76
2021/05/15 12:25:09;;;;;;;2.53;0.63;;;21.90;51.70;;;;;;6241240;28;20038;-76
2021/05/15 12:28:23;;;;;;;2.63;0.50;;;21.90;51.80;;;;;;6227088;28;20037;-76
2021/05/15 12:31:27;;;;;;;0.90;0.52;;;21.90;51.70;;;;;;6232729;28;20125;-76
2021/05/15 12:34:28;;;;;;;1.65;0.50;;;21.90;51.70;;;;;;6237002;28;20494;-76
2021/05/15 12:37:34;;;;;;;2.28;0.68;;;21.90;51.60;;;;;;6241089;28;20041;-77
2021/05/15 12:40:35;;;;;;;6.55;0.93;;;21.90;51.60;;;;;;6241798;28;20030;-77
2021/05/15 12:43:38;;;;;;;2.05;0.95;;;21.90;51.70;;;;;;6242194;28;20029;-77
2021/05/15 12:46:49;;;;;;;4.13;0.90;;;21.90;51.70;;;;;;6241149;28;20357;-77
2021/05/15 12:49:50;;;;;;;3.33;0.60;;;21.90;51.70;;;;;;6242803;28;20027;-76
2021/05/15 12:52:50;;;;;;;1.10;0.70;;;21.90;51.70;;;;;;6240619;28;20025;-76
2021/05/15 12:55:53;;;;;;;1.40;0.57;;;21.90;51.70;;;;;;6242567;28;20108;-76
2021/05/15 12:58:53;;;;;;;1.67;0.73;;;21.90;51.70;;;;;;6241705;28;20441;-76
2021/05/15 13:02:04;;;;;;;2.83;1.20;;;21.80;51.60;;;;;;6240858;28;20088;-77
2021/05/15 13:05:05;;;;;;;1.42;0.80;;;21.80;51.80;;;;;;6241416;28;20452;-76
2021/05/15 13:08:08;;;;;;;2.95;1.00;;;21.80;52.10;;;;;;6240088;28;20499;-76
2021/05/15 13:11:10;;;;;;;1.58;0.90;;;21.90;51.70;;;;;;6234784;28;20041;-77
2021/05/15 13:14:10;;;;;;;1.13;0.63;;;21.90;51.70;;;;;;6242002;28;20072;-77
2021/05/15 13:17:11;;;;;;;0.45;0.45;;;21.90;51.70;;;;;;6240412;28;20026;-76
2021/05/15 13:20:12;;;;;;;1.40;0.70;;;21.90;51.70;;;;;;6241927;28;20018;-76
2021/05/15 13:23:12;;;;;;;3.08;1.05;;;21.90;51.70;;;;;;6238699;28;20029;-76
2021/05/15 13:26:13;;;;;;;0.90;0.60;;;21.80;51.60;;;;;;6242377;28;20068;-76
2021/05/15 13:29:13;;;;;;;1.00;0.65;;;21.80;51.60;;;;;;6240645;28;20318;-76
2021/05/15 13:32:14;;;;;;;1.98;0.70;;;21.80;51.60;;;;;;6240822;28;20072;-76
2021/05/15 13:35:14;;;;;;;3.95;0.63;;;21.80;51.80;;;;;;6242071;28;20147;-78
2021/05/15 13:38:15;;;;;;;2.67;0.73;;;21.80;52.20;;;;;;6243569;28;20844;-79
2021/05/15 13:41:16;;;;;;;1.38;0.63;;;21.80;52.40;;;;;;6242556;28;20032;-79
2021/05/15 13:44:16;;;;;;;1.75;0.75;;;21.80;52.00;;;;;;6242296;28;20065;-77
2021/05/15 13:47:17;;;;;;;0.80;0.60;;;21.80;51.90;;;;;;6239319;28;20022;-76
2021/05/15 13:50:18;;;;;;;2.97;0.80;;;21.80;51.90;;;;;;6244481;28;20052;-77
2021/05/15 13:53:19;;;;;;;1.20;0.57;;;21.80;51.90;;;;;;6246686;28;20026;-77
2021/05/15 13:56:20;;;;;;;2.85;0.60;;;21.80;51.90;;;;;;6246826;28;20562;-77
2021/05/15 13:59:21;;;;;;;0.90;0.60;;;21.80;51.90;;;;;;6245487;28;20031;-77
2021/05/15 14:02:22;;;;;;;0.82;0.52;;;21.80;51.90;;;;;;6245909;28;20115;-76
2021/05/15 14:05:23;;;;;;;1.50;0.60;;;21.80;51.90;;;;;;6218988;28;20436;-77
2021/05/15 14:08:24;;;;;;;0.80;0.40;;;21.80;51.80;;;;;;6235297;28;20029;-79
2021/05/15 14:11:26;;;;;;;1.58;0.57;;;21.80;51.90;;;;;;6245700;28;20026;-78
2021/05/15 14:14:27;;;;;;;4.60;0.90;;;21.80;52.10;;;;;;6244221;28;20073;-79
2021/05/15 14:17:28;;;;;;;1.50;0.70;;;21.80;51.90;;;;;;6245352;28;20059;-79
2021/05/15 14:20:29;;;;;;;6.82;2.10;;;21.80;52.40;;;;;;6246372;28;20038;-79
2021/05/15 14:23:29;;;;;;;5.40;2.40;;;21.80;52.00;;;;;;6243465;28;20109;-79
2021/05/15 14:26:30;;;;;;;5.10;2.38;;;21.80;51.90;;;;;;6246866;28;20518;-77
2021/05/15 14:29:32;;;;;;;7.63;2.55;;;21.80;51.90;;;;;;6246808;28;20036;-77
2021/05/15 14:32:33;;;;;;;8.20;2.72;;;21.80;51.90;;;;;;6245936;28;20152;-77
2021/05/15 14:35:35;;;;;;;7.60;2.97;;;21.80;51.90;;;;;;6245639;28;20342;-78
2021/05/15 14:38:36;;;;;;;7.55;3.15;;;21.80;51.90;;;;;;6244681;28;20017;-78
2021/05/15 14:41:38;;;;;;;8.05;3.28;;;21.80;51.90;;;;;;6245146;28;20056;-77
2021/05/15 14:44:38;;;;;;;12.38;4.05;;;21.80;51.90;;;;;;6244970;28;20021;-77
2021/05/15 14:47:39;;;;;;;10.32;4.60;;;21.80;51.90;;;;;;6237461;28;20072;-78
2021/05/15 14:50:40;;;;;;;11.90;5.32;;;21.80;51.90;;;;;;6243177;28;20064;-78
2021/05/15 14:53:43;;;;;;;16.10;5.93;;;21.80;51.90;;;;;;6238605;28;20088;-77
2021/05/15 14:56:44;;;;;;;15.68;6.38;;;21.80;51.90;;;;;;6244373;28;20033;-77
2021/05/15 14:59:44;;;;;;;11.95;5.72;;;21.80;51.90;;;;;;6247927;28;20507;-76
2021/05/15 15:02:45;;;;;;;17.95;7.18;;;21.80;51.90;;;;;;6241449;28;20140;-76
2021/05/15 15:05:46;;;;;;;18.80;8.18;;;21.80;51.90;;;;;;6244844;28;20048;-77
2021/05/15 15:08:46;;;;;;;17.95;7.80;;;21.70;51.80;;;;;;6243367;28;20180;-77
2021/05/15 15:11:47;;;;;;;17.58;7.93;;;21.80;51.90;;;;;;6239863;28;20029;-78
2021/05/15 15:14:48;;;;;;;20.17;8.13;;;21.70;51.80;;;;;;6242235;28;20076;-77
2021/05/15 15:17:54;;;;;;;20.83;8.05;;;21.70;51.80;;;;;;6245401;28;20028;-76
2021/05/15 15:20:55;;;;;;;19.90;8.48;;;21.70;51.80;;;;;;6243940;28;20032;-76
2021/05/15 15:23:56;;;;;;;18.23;8.60;;;21.70;51.90;;;;;;6238559;28;20061;-76
2021/05/15 15:26:56;;;;;;;19.35;8.27;;;21.70;51.90;;;;;;6241929;28;20022;-76
2021/05/15 15:29:57;;;;;;;26.42;8.90;;;21.70;51.90;;;;;;6244325;28;20040;-76
2021/05/15 15:32:58;;;;;;;18.13;7.72;;;21.70;51.90;;;;;;6244553;28;20427;-76
2021/05/15 15:35:58;;;;;;;20.30;9.02;;;21.80;51.90;;;;;;6242724;28;20330;-76
2021/05/15 15:38:59;;;;;;;27.00;9.27;;;21.70;51.90;;;;;;6243082;28;20026;-76
2021/05/15 15:41:59;;;;;;;20.38;8.75;;;21.70;51.80;;;;;;6242377;28;20492;-76
2021/05/15 15:45:00;;;;;;;22.02;9.85;;;21.70;51.70;;;;;;6243762;28;20080;-76
2021/05/15 15:48:01;;;;;;;20.92;8.98;;;21.70;51.60;;;;;;6242951;28;20025;-76